createdAt,value
2023-02-28T00:01:55.672Z,102030.53
2023-02-28T00:07:17.514Z,102031.41
2023-02-28T00:12:39.983Z,102032.63
2023-02-28T00:18:02.269Z,102019.94
2023-02-28T00:23:24.431Z,102031.53
2023-02-28T00:28:46.453Z,102042.81
2023-02-28T00:34:08.389Z,102041.00
2023-02-28T00:39:30.259Z,102044.09
2023-02-28T00:44:52.153Z,102048.03
2023-02-28T00:50:14.060Z,102042.69
2023-02-28T00:55:35.926Z,102040.50
2023-02-28T01:00:57.915Z,102037.53
2023-02-28T01:06:19.862Z,102035.66
2023-02-28T01:11:42.664Z,102033.66
2023-02-28T01:17:04.752Z,102036.19
2023-02-28T01:22:26.695Z,102034.53
2023-02-28T01:27:48.616Z,102032.50
2023-02-28T01:33:10.476Z,102039.13
2023-02-28T01:38:32.910Z,102047.41
2023-02-28T01:44:04.689Z,102050.72
2023-02-28T01:49:26.666Z,102052.75
2023-02-28T01:54:55.148Z,102048.56
2023-02-28T02:00:20.769Z,102046.38
2023-02-28T02:05:43.061Z,102053.41
2023-02-28T02:11:11.427Z,102049.03
2023-02-28T02:16:53.347Z,102044.56
2023-02-28T02:22:18.183Z,102048.75
2023-02-28T02:27:46.045Z,102051.63
2023-02-28T02:33:35.349Z,102036.09
2023-02-28T02:39:06.163Z,102052.34
2023-02-28T02:44:46.529Z,102058.72
2023-02-28T02:50:14.903Z,102056.13
2023-02-28T02:55:42.253Z,102059.84
2023-02-28T03:01:05.708Z,102059.94
2023-02-28T03:06:27.837Z,102065.94
2023-02-28T03:11:51.409Z,102062.38
2023-02-28T03:18:09.635Z,102060.03
2023-02-28T03:23:46.266Z,102069.66
2023-02-28T03:29:12.696Z,102075.56
2023-02-28T03:34:39.389Z,102064.09
2023-02-28T03:40:07.703Z,102076.53
2023-02-28T03:45:33.481Z,102079.50
2023-02-28T03:50:58.602Z,102077.78
2023-02-28T03:56:25.677Z,102083.00
2023-02-28T04:01:50.050Z,102081.28
2023-02-28T04:07:12.675Z,102085.75
2023-02-28T04:12:34.698Z,102084.31
2023-02-28T04:17:56.652Z,102085.09
2023-02-28T04:23:18.522Z,102071.69
2023-02-28T04:28:40.337Z,102080.47
2023-02-28T04:34:02.767Z,102087.25
2023-02-28T04:39:25.552Z,102088.38
2023-02-28T04:44:47.461Z,102089.91
2023-02-28T04:50:09.799Z,102081.66
2023-02-28T04:55:31.649Z,102094.34
2023-02-28T05:00:54.694Z,102096.59
2023-02-28T05:06:17.727Z,102100.47
2023-02-28T05:11:40.691Z,102099.50
2023-02-28T05:17:02.614Z,102109.78
2023-02-28T05:22:24.624Z,102127.72
2023-02-28T05:27:46.798Z,102138.25
2023-02-28T05:33:12.115Z,102136.16
2023-02-28T05:38:34.062Z,102140.53
2023-02-28T05:43:56.021Z,102138.53
2023-02-28T05:49:17.985Z,102134.63
2023-02-28T05:54:39.845Z,102140.50
2023-02-28T06:00:02.287Z,102134.00
2023-02-28T06:05:24.519Z,102137.44
2023-02-28T06:10:46.441Z,102127.84
2023-02-28T06:16:11.476Z,102123.56
2023-02-28T06:21:33.613Z,102123.25
2023-02-28T06:26:55.594Z,102128.47
2023-02-28T06:32:17.518Z,102112.88
2023-02-28T06:37:41.714Z,102111.91
2023-02-28T06:43:04.761Z,102084.94
2023-02-28T06:48:27.936Z,102105.06
2023-02-28T06:53:49.893Z,102095.13
2023-02-28T06:59:11.806Z,102093.16
2023-02-28T07:04:33.638Z,102078.56
2023-02-28T07:09:55.549Z,102062.88
2023-02-28T07:15:17.565Z,102066.31
2023-02-28T07:20:39.399Z,102070.34
2023-02-28T07:26:01.307Z,102057.03
2023-02-28T07:31:23.300Z,102065.94
2023-02-28T07:36:45.420Z,102055.09
2023-02-28T07:42:07.918Z,102044.13
2023-02-28T07:47:32.708Z,102050.97
2023-02-28T07:52:54.710Z,102059.59
2023-02-28T07:58:16.655Z,102069.38
2023-02-28T08:03:40.120Z,102074.94
2023-02-28T08:09:01.946Z,102074.34
2023-02-28T08:14:23.795Z,102070.22
2023-02-28T08:19:48.772Z,102074.16
2023-02-28T08:25:10.894Z,102067.22
2023-02-28T08:30:33.237Z,102066.22
2023-02-28T08:35:56.137Z,102070.91
2023-02-28T08:41:18.524Z,102072.63
2023-02-28T08:46:40.441Z,102083.59
2023-02-28T08:52:02.322Z,102067.41
2023-02-28T08:57:24.294Z,102073.41
2023-02-28T09:02:46.163Z,102090.63
2023-02-28T09:08:08.038Z,102073.72
2023-02-28T09:13:30.888Z,102073.34
2023-02-28T09:18:52.932Z,102087.66
2023-02-28T09:24:14.778Z,102092.56
2023-02-28T09:29:36.825Z,102093.91
2023-02-28T09:34:58.652Z,102093.09
2023-02-28T09:40:23.325Z,102090.88
2023-02-28T09:46:01.100Z,102105.09
2023-02-28T09:51:44.922Z,102084.81
2023-02-28T09:57:35.952Z,102088.84
2023-02-28T10:03:05.359Z,102142.34
2023-02-28T10:08:30.224Z,102149.75
2023-02-28T10:14:02.086Z,102149.28
2023-02-28T10:19:33.986Z,102141.03
2023-02-28T10:24:58.462Z,102162.59
2023-02-28T10:30:20.576Z,102148.13
2023-02-28T10:35:42.496Z,102101.75
2023-02-28T10:41:17.493Z,102101.31
2023-02-28T10:46:41.621Z,102099.22
2023-02-28T10:52:03.584Z,102101.44
2023-02-28T10:57:25.551Z,102096.38
2023-02-28T11:02:47.448Z,102078.59
2023-02-28T11:08:16.115Z,102081.38
2023-02-28T11:13:38.324Z,102073.44
2023-02-28T11:19:00.617Z,102062.25
2023-02-28T11:24:30.865Z,102053.56
2023-02-28T11:29:52.799Z,102049.16
2023-02-28T11:35:36.050Z,102053.28
2023-02-28T11:40:57.880Z,102029.88
2023-02-28T11:46:42.036Z,102033.34
2023-02-28T11:52:42.404Z,102029.09
2023-02-28T11:58:25.845Z,102023.91
2023-02-28T12:03:50.525Z,102020.94
2023-02-28T12:09:38.754Z,102012.19
2023-02-28T12:15:17.843Z,102017.03
2023-02-28T12:20:58.030Z,102006.09
2023-02-28T12:26:41.827Z,102005.88
2023-02-28T12:32:13.977Z,101985.31
2023-02-28T12:37:44.274Z,101989.81
2023-02-28T12:43:10.488Z,101982.25
2023-02-28T12:48:49.525Z,101974.13
2023-02-28T12:54:33.309Z,101974.69
2023-02-28T13:00:03.287Z,101970.91
2023-02-28T13:05:56.404Z,101976.69
2023-02-28T13:11:48.825Z,101964.91
2023-02-28T13:17:10.641Z,101957.19
2023-02-28T13:22:47.527Z,101943.97
2023-02-28T13:28:15.008Z,101945.00
2023-02-28T13:33:57.595Z,101941.28
2023-02-28T13:39:35.367Z,101931.88
2023-02-28T13:45:04.309Z,101928.78
2023-02-28T13:50:42.332Z,101922.72
2023-02-28T13:56:07.025Z,101920.50
2023-02-28T14:02:06.611Z,101922.56
2023-02-28T14:07:42.433Z,101901.25
2023-02-28T14:13:31.090Z,101900.69
2023-02-28T14:18:59.903Z,101888.94
2023-02-28T14:24:41.316Z,101894.94
2023-02-28T14:30:25.853Z,101884.94
2023-02-28T14:36:21.308Z,101884.31
2023-02-28T14:41:44.961Z,101878.16
2023-02-28T14:47:16.837Z,101874.94
2023-02-28T14:52:38.755Z,101875.78
2023-02-28T14:58:04.001Z,101872.75
2023-02-28T15:03:31.264Z,101868.41
2023-02-28T15:09:16.602Z,101866.22
2023-02-28T15:14:40.347Z,101858.50
2023-02-28T15:20:02.836Z,101875.91
2023-02-28T15:25:25.681Z,101875.91
2023-02-28T15:31:02.504Z,101873.16
2023-02-28T15:36:31.081Z,101861.16
2023-02-28T15:41:53.387Z,101869.38
2023-02-28T15:47:27.978Z,101868.28
2023-02-28T15:52:49.861Z,101872.13
2023-02-28T15:58:13.466Z,101870.84
2023-02-28T16:03:42.382Z,101881.41
2023-02-28T16:09:05.897Z,101882.44
2023-02-28T16:14:29.547Z,101883.06
2023-02-28T16:19:51.604Z,101891.19
2023-02-28T16:25:16.197Z,101890.75
2023-02-28T16:30:38.130Z,101874.91
2023-02-28T16:36:00.725Z,101893.34
2023-02-28T16:41:25.043Z,101888.78
2023-02-28T16:46:46.893Z,101886.78
2023-02-28T16:52:09.827Z,101907.06
2023-02-28T16:57:33.054Z,101909.19
2023-02-28T17:02:57.101Z,101913.50
2023-02-28T17:08:19.040Z,101921.63
2023-02-28T17:13:40.956Z,101922.13
2023-02-28T17:19:05.246Z,101925.41
2023-02-28T17:24:31.209Z,101928.69
2023-02-28T17:29:53.439Z,101932.53
2023-02-28T17:35:16.199Z,101928.16
2023-02-28T17:40:38.065Z,101915.16
2023-02-28T17:46:00.036Z,101919.97
2023-02-28T17:51:24.378Z,101919.97
2023-02-28T17:56:46.636Z,101916.16
2023-02-28T18:02:12.402Z,101905.75
2023-02-28T18:07:34.638Z,101893.84
2023-02-28T18:12:56.515Z,101895.41
2023-02-28T18:18:18.439Z,101876.50
2023-02-28T18:23:40.987Z,101877.31
2023-02-28T18:29:03.083Z,101881.50
2023-02-28T18:34:25.750Z,101871.06
2023-02-28T18:39:47.678Z,101865.13
2023-02-28T18:45:12.459Z,101859.94
2023-02-28T18:50:37.996Z,101871.72
2023-02-28T18:56:04.283Z,101853.25
2023-02-28T19:01:28.103Z,101859.09
2023-02-28T19:06:50.234Z,101884.59
2023-02-28T19:12:12.153Z,101876.88
2023-02-28T19:17:34.260Z,101881.84
2023-02-28T19:22:56.155Z,101880.69
2023-02-28T19:28:18.032Z,101889.94
2023-02-28T19:33:40.554Z,101888.84
2023-02-28T19:39:02.837Z,101884.25
2023-02-28T19:44:24.786Z,101903.47
2023-02-28T19:49:46.709Z,101910.09
2023-02-28T19:55:09.868Z,101903.97
2023-02-28T20:00:31.993Z,101909.06
2023-02-28T20:06:02.877Z,101912.16
2023-02-28T20:11:25.073Z,101919.59
2023-02-28T20:16:47.079Z,101933.94
2023-02-28T20:22:13.677Z,101933.22
2023-02-28T20:27:39.073Z,101912.63
2023-02-28T20:33:01.448Z,101900.53
2023-02-28T20:38:23.423Z,101890.25
2023-02-28T20:43:45.887Z,101888.53
2023-02-28T20:49:07.758Z,101897.81
2023-02-28T20:54:29.805Z,101897.81
2023-02-28T20:59:51.700Z,101890.16
2023-02-28T21:05:13.557Z,101894.16
2023-02-28T21:10:35.511Z,101884.03
2023-02-28T21:15:57.390Z,101892.38
2023-02-28T21:21:21.843Z,101888.06
2023-02-28T21:26:45.155Z,101876.00
2023-02-28T21:32:07.069Z,101888.00
2023-02-28T21:37:29.015Z,101886.31
2023-02-28T21:42:50.868Z,101887.81
2023-02-28T21:48:12.816Z,101885.22
2023-02-28T21:53:37.496Z,101896.03
2023-02-28T21:59:01.022Z,101889.97
2023-02-28T22:04:23.030Z,101885.91
2023-02-28T22:09:44.907Z,101880.47
2023-02-28T22:15:07.393Z,101885.78
2023-02-28T22:20:29.334Z,101879.78
2023-02-28T22:25:51.212Z,101866.88
2023-02-28T22:31:19.363Z,101850.75
2023-02-28T22:36:42.692Z,101867.97
2023-02-28T22:42:04.598Z,101861.25
2023-02-28T22:47:26.592Z,101849.47
2023-02-28T22:52:48.460Z,101854.50
2023-02-28T22:58:10.287Z,101867.28
2023-02-28T23:03:32.152Z,101874.09
2023-02-28T23:08:57.732Z,101886.59
2023-02-28T23:14:21.143Z,101879.66
2023-02-28T23:19:42.988Z,101878.78
2023-02-28T23:25:05.445Z,101871.25
2023-02-28T23:30:27.276Z,101868.03
2023-02-28T23:35:49.262Z,101865.31
2023-02-28T23:41:12.528Z,101867.34
2023-02-28T23:46:34.402Z,101882.63
2023-02-28T23:51:56.235Z,101860.31
2023-02-28T23:57:18.122Z,101877.56
